Flight Number: EUR1377 Duration: 2:00
Departure: Vágar Airport (EKVG) at 21:15 Distance: 696 Nm
Arrival: Gatwick Airport (EGKK) at 23:15 Equipment: CRJ700

Weather Information
Soervaag / Vagar, Denmark (EKVG) 62-04N 007-17W 92M Jan 21, 2019 - 07:20 AM EST / 2019.01.21 1220 UTC
Wind: from the SSE (160 degrees) at 29 MPH (25 KT):0
Sky conditions: overcast Weather: drizzle Temperature: 44 F (7 C) Dew Point: 41 F (5 C) Relative Humidity: 87% Pressure (altimeter): 29.32 in. Hg (0993 hPa)
ob: EKVG 211220Z AUTO 16025KT 9999NDV DZ OVC011/// 07/05 Q0993 cycle: 12
Sunrise: 09:27 Sunset: 15:52 (UTC)

London / Gatwick Airport, United Kingdom (EGKK) 51-09N 000-11W 0M Jan 21, 2019 - 07:20 AM EST / 2019.01.21 1220 UTC
Wind: Variable at 2 MPH (2 KT):0
Visibility: 3 mile(s):0
Sky conditions: mostly clear Weather: haze Temperature: 41 F (5 C) Dew Point: 35 F (2 C) Relative Humidity: 80% Pressure (altimeter): 30.21 in. Hg (1023 hPa)
ob: EGKK 211220Z VRB02KT 5000 HZ FEW031 05/02 Q1023 cycle: 12
Sunrise: 07:56 Sunset: 16:27 (UTC)

TAF:2019/01/21 12:06 TAF EGKK 211057Z 2112/2218 20006KT 1400 BR FEW001 SCT030 BECMG 2112/2115 9999 NSW PROB40 2112/2113 BKN001 PROB40 TEMPO 2115/2122 6000 TEMPO 2122/2205 6000 -RADZ BKN012 PROB30 TEMPO 2200/2204 19015G25KT 4000 RA BKN007 BECMG 2203/2206 28010KT TEMPO 2213/2218 6000 -SHRA BKN010 PROB30 TEMPO 2213/2218 3000 SHRA -SHRASN BKN005

This route has never been flown.

Route map